Time;durP1;ratioP1;P1;durP2;ratioP2;P2;SDS_P1;SDS_P2;PMS_P1;PMS_P2;Temp;Humidity;BMP_temperature;BMP_pressure;BME280_temperature;BME280_humidity;BME280_pressure;Samples;Min_cycle;Max_cycle;Signal;HPM_P1;HPM_P2
2020/04/28 00:00:30;;;;;;;6.2;5.6;;;;;;;12.78;76.625;949.9156;;;;
2020/04/28 00:03:00;;;;;;;6;5.4;;;;;;;12.67;75.03418;949.885;;;;
2020/04/28 00:05:11;;;;;;;6.7;5.5;;;;;;;12.63;74.74902;949.8428;;;;
2020/04/28 00:07:36;;;;;;;6;5.3;;;;;;;12.71;77.2041;949.8253;;;;
2020/04/28 00:10:01;;;;;;;6.6;5.4;;;;;;;12.68;75.40625;949.89;;;;
2020/04/28 00:12:26;;;;;;;6.9;5.5;;;;;;;12.62;73.93848;949.8597;;;;
2020/04/28 00:14:53;;;;;;;5.5;5;;;;;;;12.63;73.4082;949.8517;;;;
2020/04/28 00:17:18;;;;;;;6.1;5.1;;;;;;;12.6;70.75391;949.8209;;;;
2020/04/28 00:19:43;;;;;;;8;5.3;;;;;;;12.66;74.87109;949.7944;;;;
2020/04/28 00:22:10;;;;;;;5.6;5.1;;;;;;;12.54;74.31738;949.7916;;;;
2020/04/28 00:24:35;;;;;;;7.5;5;;;;;;;12.55;71.91602;949.7734;;;;
2020/04/28 00:27:02;;;;;;;5.4;4.9;;;;;;;12.49;73.25684;949.8091;;;;
2020/04/28 00:29:27;;;;;;;5.5;4.9;;;;;;;12.48;73.09473;949.7673;;;;
2020/04/28 00:31:53;;;;;;;5.9;5;;;;;;;12.63;70.36621;949.7406;;;;
2020/04/28 00:34:18;;;;;;;6.7;5;;;;;;;12.47;69.93457;949.7388;;;;
2020/04/28 00:36:43;;;;;;;5.2;4.7;;;;;;;12.36;68.6123;949.7541;;;;
2020/04/28 00:39:08;;;;;;;6.9;5.3;;;;;;;12.38;69.00879;949.7031;;;;
2020/04/28 00:41:35;;;;;;;8.4;5.1;;;;;;;12.32;68.61816;949.723;;;;
2020/04/28 00:43:58;;;;;;;5.9;5;;;;;;;12.26;68.97656;949.7706;;;;
2020/04/28 00:46:31;;;;;;;8.3;5.2;;;;;;;12.26;71.21973;949.7321;;;;
2020/04/28 00:48:48;;;;;;;8.5;4.9;;;;;;;12.21;71.48828;949.7473;;;;
2020/04/28 00:51:13;;;;;;;6.2;5.3;;;;;;;12.03;69.40137;949.734;;;;
2020/04/28 00:53:38;;;;;;;5.8;5;;;;;;;12.14;72.33105;949.7719;;;;
2020/04/28 00:56:03;;;;;;;7.1;5.2;;;;;;;12.04;71.80859;949.7272;;;;
2020/04/28 00:58:28;;;;;;;5.7;5;;;;;;;11.96;72.45313;949.7395;;;;
2020/04/28 01:03:20;;;;;;;6.9;5;;;;;;;11.9;70.6748;949.7512;;;;
2020/04/28 01:05:51;;;;;;;7.6;5.1;;;;;;;11.81;72.41406;949.7454;;;;
2020/04/28 01:08:16;;;;;;;6;4.7;;;;;;;11.71;70.59766;949.748;;;;
2020/04/28 01:10:41;;;;;;;7.9;5.1;;;;;;;11.77;72.48926;949.752;;;;
2020/04/28 01:13:06;;;;;;;5.7;5.2;;;;;;;11.56;70.20508;949.7506;;;;
2020/04/28 01:15:32;;;;;;;7.4;5;;;;;;;11.49;69.6416;949.7296;;;;
2020/04/28 01:17:57;;;;;;;5.6;5.1;;;;;;;11.6;70.21094;949.7033;;;;
2020/04/28 01:20:22;;;;;;;7.1;5.2;;;;;;;11.62;71.94434;949.7441;;;;
2020/04/28 01:22:47;;;;;;;5.9;5.3;;;;;;;11.57;71.66016;949.7709;;;;
2020/04/28 01:25:14;;;;;;;6;5.1;;;;;;;11.48;73.11035;949.7391;;;;
2020/04/28 01:27:39;;;;;;;6.7;5.1;;;;;;;11.42;71.87695;949.7196;;;;
2020/04/28 01:30:05;;;;;;;6.4;5.1;;;;;;;11.4;71.73438;949.7028;;;;
2020/04/28 01:32:30;;;;;;;5.6;5;;;;;;;11.26;73.31641;949.7369;;;;
2020/04/28 01:34:56;;;;;;;6.4;4.8;;;;;;;11.23;72.92969;949.7507;;;;
2020/04/28 01:37:21;;;;;;;7.3;4.6;;;;;;;11.18;69.54492;949.6984;;;;
2020/04/28 01:39:46;;;;;;;5.8;4.6;;;;;;;11.19;69.91504;949.7336;;;;
2020/04/28 01:42:11;;;;;;;6;4.8;;;;;;;11.23;69.55273;949.7328;;;;
2020/04/28 01:44:36;;;;;;;5.4;4.4;;;;;;;11.22;70.21973;949.7386;;;;
2020/04/28 01:47:01;;;;;;;5.9;4.7;;;;;;;11.27;70.96484;949.6903;;;;
2020/04/28 01:49:26;;;;;;;5.4;4.8;;;;;;;11.25;71.35352;949.7687;;;;
2020/04/28 01:51:51;;;;;;;5.3;4.6;;;;;;;11.18;69.96973;949.7188;;;;
2020/04/28 01:54:16;;;;;;;6.5;5.1;;;;;;;11.13;71.52832;949.7472;;;;
2020/04/28 01:56:41;;;;;;;5.8;4.4;;;;;;;11.17;71.70898;949.8494;;;;
2020/04/28 01:59:06;;;;;;;5.1;4.6;;;;;;;10.97;69.67188;949.9102;;;;
2020/04/28 02:03:56;;;;;;;6;4.8;;;;;;;10.82;70.34961;949.9286;;;;
2020/04/28 02:06:22;;;;;;;6.1;4.7;;;;;;;10.97;70.59375;949.9102;;;;
2020/04/28 02:08:47;;;;;;;7;5;;;;;;;10.62;71.88281;950.0023;;;;
2020/04/28 02:11:12;;;;;;;5.4;4.9;;;;;;;10.55;72.71191;949.9467;;;;
2020/04/28 02:13:38;;;;;;;6.7;5.1;;;;;;;10.67;72.65039;949.8337;;;;
2020/04/28 02:16:04;;;;;;;6.6;5;;;;;;;10.49;72.91992;949.8511;;;;
2020/04/28 02:18:29;;;;;;;5.3;4.8;;;;;;;10.58;73.43066;949.897;;;;
2020/04/28 02:20:55;;;;;;;5.8;5;;;;;;;10.52;74.61719;949.9205;;;;
2020/04/28 02:23:20;;;;;;;6.4;4.8;;;;;;;10.6;74.81543;949.8214;;;;
2020/04/28 02:25:46;;;;;;;6.3;4.8;;;;;;;10.7;74.49707;949.8217;;;;
2020/04/28 02:28:12;;;;;;;5;4.5;;;;;;;10.66;75.41211;949.7637;;;;
2020/04/28 02:35:35;;;;;;;6.3;4.8;;;;;;;10.69;74.90039;949.7084;;;;
2020/04/28 02:38:00;;;;;;;6.1;4.5;;;;;;;10.76;75.04883;949.7305;;;;
2020/04/28 02:40:17;;;;;;;5.3;4.5;;;;;;;10.72;75.01953;949.7272;;;;
2020/04/28 02:42:42;;;;;;;5.1;4.6;;;;;;;10.66;75.72461;949.6978;;;;
2020/04/28 02:45:07;;;;;;;6.2;5;;;;;;;10.66;75.45801;949.6415;;;;
2020/04/28 02:47:32;;;;;;;5.4;4.9;;;;;;;10.6;76.49414;949.6699;;;;
2020/04/28 02:49:58;;;;;;;5.4;4.8;;;;;;;10.55;75.55371;949.6778;;;;
2020/04/28 02:52:23;;;;;;;6.3;5.2;;;;;;;10.56;75.40625;949.6713;;;;
2020/04/28 02:54:49;;;;;;;6.3;5.1;;;;;;;10.51;75.62695;949.6908;;;;
2020/04/28 02:57:14;;;;;;;5.1;4.6;;;;;;;10.48;75.62207;949.7266;;;;
2020/04/28 02:59:40;;;;;;;6.7;4.9;;;;;;;10.45;75.01953;949.6971;;;;
2020/04/28 03:02:05;;;;;;;5.6;4.9;;;;;;;10.41;74.80469;949.6454;;;;
2020/04/28 03:04:30;;;;;;;5;4.4;;;;;;;10.54;74.5498;949.6339;;;;
2020/04/28 03:06:55;;;;;;;5;4.5;;;;;;;10.38;74.85742;949.5753;;;;
2020/04/28 03:09:21;;;;;;;5.2;4.2;;;;;;;10.39;73.24805;949.5927;;;;
2020/04/28 03:11:47;;;;;;;5;4.5;;;;;;;10.3;74.02637;949.5452;;;;
2020/04/28 03:14:12;;;;;;;4.8;4.4;;;;;;;10.17;74.63574;949.5206;;;;
2020/04/28 03:16:38;;;;;;;4.8;4.3;;;;;;;10.19;73.7666;949.5264;;;;
2020/04/28 03:19:07;;;;;;;4.5;4.1;;;;;;;10.15;74.05762;949.5655;;;;
2020/04/28 03:21:34;;;;;;;5.6;4.3;;;;;;;10.05;73.76563;949.6893;;;;
2020/04/28 03:23:59;;;;;;;5.1;4.2;;;;;;;10.05;75.05469;949.6359;;;;
2020/04/28 03:26:25;;;;;;;5.8;4.3;;;;;;;10.16;74.85254;949.5972;;;;
2020/04/28 03:28:50;;;;;;;4.8;4.3;;;;;;;10.21;74.78125;949.5844;;;;
2020/04/28 03:31:17;;;;;;;5.3;4.1;;;;;;;10.28;74.09082;949.5295;;;;
2020/04/28 03:33:42;;;;;;;5;4.2;;;;;;;10.21;75.37793;949.512;;;;
2020/04/28 03:36:08;;;;;;;4.4;4;;;;;;;10.23;75.0957;949.4339;;;;
2020/04/28 03:38:34;;;;;;;4.2;3.8;;;;;;;10.21;74.8623;949.4459;;;;
2020/04/28 03:41:00;;;;;;;5.2;4;;;;;;;10.21;75.26465;949.5021;;;;
2020/04/28 03:43:25;;;;;;;6.3;4.3;;;;;;;10.22;75.93359;949.4891;;;;
2020/04/28 03:45:52;;;;;;;4.9;4;;;;;;;10.28;75.52832;949.4807;;;;
2020/04/28 03:48:17;;;;;;;7.4;4.5;;;;;;;10.27;76.4834;949.4384;;;;
2020/04/28 03:50:43;;;;;;;4.2;3.8;;;;;;;10.45;74.8125;949.4373;;;;
2020/04/28 03:53:08;;;;;;;5.4;3.9;;;;;;;10.45;74.06445;949.452;;;;
2020/04/28 03:55:35;;;;;;;4.5;4.1;;;;;;;10.41;74.79297;949.481;;;;
2020/04/28 03:58:00;;;;;;;6.1;4.1;;;;;;;10.53;75.82715;949.5147;;;;
2020/04/28 04:02:27;;;;;;;5.2;4.3;;;;;;;10.58;73.19922;949.5361;;;;
2020/04/28 04:04:52;;;;;;;4.6;4.1;;;;;;;10.65;74.14355;949.4947;;;;
2020/04/28 04:07:17;;;;;;;4.2;3.8;;;;;;;10.71;72.42578;949.494;;;;
2020/04/28 04:09:42;;;;;;;5.2;4.2;;;;;;;10.82;72.72168;949.4885;;;;
2020/04/28 04:12:07;;;;;;;4.2;3.8;;;;;;;10.96;74.04688;949.5328;;;;
2020/04/28 04:14:32;;;;;;;4.8;3.8;;;;;;;11.09;74.35742;949.5215;;;;
2020/04/28 04:16:57;;;;;;;4.5;4;;;;;;;11.03;71.75488;949.4799;;;;
2020/04/28 04:19:22;;;;;;;4.9;3.9;;;;;;;11.18;73.86719;949.4799;;;;
2020/04/28 04:21:48;;;;;;;5.7;3.9;;;;;;;11.22;73.2627;949.5045;;;;
2020/04/28 04:24:13;;;;;;;5.1;3.8;;;;;;;11.32;74.13086;949.5086;;;;
2020/04/28 04:26:38;;;;;;;6.1;4;;;;;;;11.32;74.14355;949.5379;;;;
2020/04/28 04:29:03;;;;;;;7.7;4.4;;;;;;;11.37;75.75586;949.5494;;;;
2020/04/28 04:31:28;;;;;;;6;4.2;;;;;;;11.32;74.63965;949.5558;;;;
2020/04/28 04:33:53;;;;;;;5.2;4;;;;;;;11.35;74.41406;949.5974;;;;
2020/04/28 04:36:18;;;;;;;6.1;3.9;;;;;;;11.37;74.40527;949.6348;;;;
2020/04/28 04:38:44;;;;;;;4.2;3.8;;;;;;;11.37;74.33594;949.6331;;;;
2020/04/28 04:41:08;;;;;;;5.6;4.1;;;;;;;11.35;73.96387;949.6619;;;;
2020/04/28 04:43:34;;;;;;;5.1;4;;;;;;;11.41;73.66309;949.6464;;;;
2020/04/28 04:45:59;;;;;;;4.5;3.9;;;;;;;11.37;73.31152;949.5999;;;;
2020/04/28 04:48:26;;;;;;;6.3;3.7;;;;;;;11.43;73.52832;949.6203;;;;
2020/04/28 04:50:51;;;;;;;4.5;3.7;;;;;;;11.43;73.80469;949.6326;;;;
2020/04/28 04:53:18;;;;;;;6.2;4.1;;;;;;;11.43;73.98926;949.5567;;;;
2020/04/28 04:55:43;;;;;;;5.5;4.2;;;;;;;11.32;73.70605;949.551;;;;
2020/04/28 04:58:10;;;;;;;5.8;4;;;;;;;11.38;75.21582;949.6039;;;;
2020/04/28 05:03:01;;;;;;;5.3;4.1;;;;;;;11.48;74.80566;949.5997;;;;
2020/04/28 05:05:28;;;;;;;10.1;4;;;;;;;11.52;75.22754;949.6178;;;;
2020/04/28 05:07:51;;;;;;;6.7;4;;;;;;;11.56;75.25684;949.5598;;;;
2020/04/28 05:10:16;;;;;;;5.5;4;;;;;;;11.63;76.04199;949.6135;;;;
2020/04/28 05:12:42;;;;;;;4.7;4.2;;;;;;;11.74;74.82715;949.6272;;;;
2020/04/28 05:15:07;;;;;;;5.6;4.1;;;;;;;11.83;74.59863;949.6214;;;;
2020/04/28 05:17:33;;;;;;;5.1;4.3;;;;;;;11.69;75.11816;949.6003;;;;
2020/04/28 05:19:58;;;;;;;4.6;4.1;;;;;;;11.79;76.53223;949.6117;;;;
2020/04/28 05:22:24;;;;;;;4.3;3.8;;;;;;;11.87;74.30664;949.6394;;;;
2020/04/28 05:24:49;;;;;;;4.5;3.9;;;;;;;11.98;75.39844;949.5853;;;;
2020/04/28 05:27:16;;;;;;;5.9;4;;;;;;;12.02;75.70703;949.5345;;;;
2020/04/28 05:29:42;;;;;;;6.1;4.5;;;;;;;12.04;74.08203;949.4938;;;;
2020/04/28 05:32:08;;;;;;;5.5;4.2;;;;;;;11.94;73.56836;949.5464;;;;
2020/04/28 05:34:34;;;;;;;7.4;4.5;;;;;;;12;75.91211;949.4702;;;;
2020/04/28 05:37:01;;;;;;;5.2;4.5;;;;;;;12.07;75.04492;949.4578;;;;
2020/04/28 05:39:26;;;;;;;5;4.4;;;;;;;12.17;75.1084;949.5071;;;;
2020/04/28 05:41:51;;;;;;;6.1;4.3;;;;;;;12.25;74.39551;949.5436;;;;
2020/04/28 05:44:19;;;;;;;5.7;4.1;;;;;;;12.43;76.21777;949.5338;;;;
2020/04/28 05:46:47;;;;;;;8.1;5;;;;;;;12.61;76.09961;949.4864;;;;
2020/04/28 05:49:12;;;;;;;9;6.6;;;;;;;12.71;75.18945;949.5594;;;;
2020/04/28 05:51:40;;;;;;;7.2;5.4;;;;;;;12.85;75.30859;949.5864;;;;
2020/04/28 05:54:05;;;;;;;7.3;5.5;;;;;;;12.99;75.89844;949.6102;;;;
2020/04/28 05:58:55;;;;;;;6.8;4.8;;;;;;;13.16;74.51758;949.6758;;;;
2020/04/28 06:01:31;;;;;;;7.6;5;;;;;;;13.22;74.95508;949.6386;;;;
2020/04/28 06:03:48;;;;;;;6.8;4.5;;;;;;;13.34;73.17969;949.6266;;;;
2020/04/28 06:06:10;;;;;;;5.9;4.7;;;;;;;13.47;73.35352;949.6183;;;;
2020/04/28 06:08:36;;;;;;;6.5;4.7;;;;;;;13.53;74.0127;949.6783;;;;
2020/04/28 06:11:01;;;;;;;8.4;4.9;;;;;;;13.58;75.12109;949.6697;;;;
2020/04/28 06:13:26;;;;;;;6.1;4.6;;;;;;;13.57;76.92773;949.6525;;;;
2020/04/28 06:15:53;;;;;;;7.4;4.4;;;;;;;13.58;74.53027;949.6721;;;;
2020/04/28 06:18:18;;;;;;;7.3;4.4;;;;;;;13.57;75.0166;949.6516;;;;
2020/04/28 06:20:45;;;;;;;6.5;4.2;;;;;;;13.76;73.18262;949.655;;;;
2020/04/28 06:23:10;;;;;;;7.1;4;;;;;;;13.83;73.07715;949.6944;;;;
2020/04/28 06:25:36;;;;;;;5.8;4.1;;;;;;;13.92;72.74414;949.6353;;;;
2020/04/28 06:28:01;;;;;;;7;4.3;;;;;;;13.91;73.13672;949.6774;;;;
2020/04/28 06:30:29;;;;;;;6.3;4.5;;;;;;;13.98;72.96191;949.6987;;;;
2020/04/28 06:32:54;;;;;;;9.4;4.3;;;;;;;14.04;73.11328;949.6578;;;;
2020/04/28 06:35:21;;;;;;;5.4;4.1;;;;;;;14.11;73.00781;949.6744;;;;
2020/04/28 06:37:46;;;;;;;5.3;3.9;;;;;;;14.1;73.16895;949.6836;;;;
2020/04/28 06:40:13;;;;;;;6.5;4.5;;;;;;;14.15;73.68848;949.7191;;;;
2020/04/28 06:42:38;;;;;;;5.3;4.4;;;;;;;14.08;73.24707;949.7664;;;;
2020/04/28 06:45:03;;;;;;;6.3;4.2;;;;;;;14.2;74.70703;949.738;;;;
2020/04/28 06:47:28;;;;;;;5.1;4.4;;;;;;;14.14;73.25781;949.7459;;;;
2020/04/28 06:49:53;;;;;;;6;4.2;;;;;;;14.27;72.98828;949.765;;;;
2020/04/28 06:52:19;;;;;;;7;4.4;;;;;;;14.29;73.24707;949.8025;;;;
2020/04/28 06:54:44;;;;;;;7.6;4.6;;;;;;;14.43;73.29395;949.8183;;;;
2020/04/28 06:57:10;;;;;;;5.1;4.6;;;;;;;14.52;72.96094;949.7905;;;;
2020/04/28 06:59:35;;;;;;;5.9;4.4;;;;;;;14.56;72.6543;949.7644;;;;
2020/04/28 07:02:02;;;;;;;5.9;4.2;;;;;;;14.56;73.21094;949.8145;;;;
2020/04/28 07:04:27;;;;;;;9;4.7;;;;;;;14.61;72.7793;949.822;;;;
2020/04/28 07:07:44;;;;;;;5;4.2;;;;;;;14.57;73.37598;949.8317;;;;
2020/04/28 07:10:09;;;;;;;5;4.2;;;;;;;14.8;73.03223;949.8204;;;;
2020/04/28 07:12:34;;;;;;;5.2;4.2;;;;;;;14.72;73.09863;949.7888;;;;
2020/04/28 07:14:59;;;;;;;6.7;4.5;;;;;;;14.75;72.91797;949.7646;;;;
2020/04/28 07:17:24;;;;;;;4.6;4.1;;;;;;;14.8;73.56641;949.7827;;;;
2020/04/28 07:19:49;;;;;;;5.9;4.3;;;;;;;14.82;73.02148;949.7711;;;;
2020/04/28 07:22:14;;;;;;;4.8;4.3;;;;;;;14.75;73.24414;949.7548;;;;
2020/04/28 07:24:39;;;;;;;5.4;4.3;;;;;;;14.94;73.2168;949.7086;;;;
2020/04/28 07:27:05;;;;;;;4.7;4.1;;;;;;;15;72.91211;949.7562;;;;
2020/04/28 07:29:30;;;;;;;5.6;4.4;;;;;;;15.14;72.68164;949.6886;;;;
2020/04/28 07:31:55;;;;;;;4.5;4.1;;;;;;;15.11;72.89648;949.6817;;;;
2020/04/28 07:34:20;;;;;;;6;4.4;;;;;;;15.21;72.83008;949.6655;;;;
2020/04/28 07:36:45;;;;;;;4.3;3.9;;;;;;;15.39;72.30469;949.6789;;;;
2020/04/28 07:39:10;;;;;;;6.8;4.4;;;;;;;15.24;72.41699;949.7166;;;;
2020/04/28 07:41:35;;;;;;;4.1;3.7;;;;;;;15.48;72.3877;949.7112;;;;
2020/04/28 07:44:00;;;;;;;4.9;4.3;;;;;;;15.56;72.30762;949.7372;;;;
2020/04/28 07:46:25;;;;;;;5.3;3.9;;;;;;;15.7;71.91211;949.7079;;;;
2020/04/28 07:48:50;;;;;;;5.9;3.6;;;;;;;15.87;71.125;949.7395;;;;
2020/04/28 07:51:15;;;;;;;4.3;3.9;;;;;;;15.92;71.1084;949.7445;;;;
2020/04/28 07:53:42;;;;;;;5.2;3.9;;;;;;;15.79;70.77246;949.782;;;;
2020/04/28 07:56:07;;;;;;;7.3;4;;;;;;;15.66;70.34473;949.7658;;;;
2020/04/28 07:58:34;;;;;;;5.1;3.4;;;;;;;16.01;69.98145;949.7495;;;;
2020/04/28 08:01:00;;;;;;;4.1;3.7;;;;;;;15.98;69.41797;949.7704;;;;
2020/04/28 08:03:25;;;;;;;4.5;4.1;;;;;;;16.05;69.40723;949.7961;;;;
2020/04/28 08:05:50;;;;;;;4.9;4;;;;;;;15.94;69.42383;949.7997;;;;
2020/04/28 08:08:15;;;;;;;6.1;4.2;;;;;;;16.03;68.64551;949.8198;;;;
2020/04/28 08:10:42;;;;;;;4.4;4;;;;;;;16.19;68.30762;949.8645;;;;
2020/04/28 08:13:07;;;;;;;5.1;3.9;;;;;;;16.36;67.68262;949.8884;;;;
2020/04/28 08:15:36;;;;;;;4.6;4;;;;;;;16.45;68.16113;949.8947;;;;
2020/04/28 08:18:02;;;;;;;5.9;4;;;;;;;16.46;67.90723;949.8937;;;;
2020/04/28 08:20:27;;;;;;;7.7;4.3;;;;;;;16.51;67.79883;949.8912;;;;
2020/04/28 08:22:53;;;;;;;6.3;4;;;;;;;16.75;67.56836;949.8535;;;;
2020/04/28 08:25:18;;;;;;;5.3;3.8;;;;;;;16.71;66.98926;949.8558;;;;
2020/04/28 08:27:44;;;;;;;6.3;4;;;;;;;16.78;66.29883;949.8826;;;;
2020/04/28 08:30:09;;;;;;;7.2;4.2;;;;;;;16.77;66.1582;949.9074;;;;
2020/04/28 08:32:36;;;;;;;4.8;4.1;;;;;;;16.68;65.75977;949.8934;;;;
2020/04/28 08:35:01;;;;;;;5.7;4;;;;;;;16.88;65.99902;949.8904;;;;
2020/04/28 08:37:28;;;;;;;5.2;4.1;;;;;;;17.09;64.54688;949.8934;;;;
2020/04/28 08:39:53;;;;;;;4.6;4.1;;;;;;;17.21;63.6416;949.903;;;;
2020/04/28 08:42:20;;;;;;;6.3;4.1;;;;;;;17.36;62.87988;949.9037;;;;
2020/04/28 08:44:45;;;;;;;4.6;4.1;;;;;;;17.42;62.73633;949.9716;;;;
2020/04/28 08:47:10;;;;;;;4.9;3.7;;;;;;;17.53;61.39551;949.9469;;;;
2020/04/28 08:49:37;;;;;;;5;3.9;;;;;;;17.39;60.73242;949.9221;;;;
2020/04/28 08:52:02;;;;;;;4.3;3.9;;;;;;;17.42;62.14063;949.9255;;;;
2020/04/28 08:57:09;;;;;;;4.8;3.7;;;;;;;17.65;61.71582;949.8912;;;;
2020/04/28 08:59:40;;;;;;;5.5;4.3;;;;;;;17.59;60.99512;949.8597;;;;
2020/04/28 09:01:49;;;;;;;4.6;3.5;;;;;;;17.72;61.76172;949.8779;;;;
2020/04/28 09:05:37;;;;;;;4.8;3.7;;;;;;;17.67;60.53809;949.8237;;;;
2020/04/28 09:06:43;;;;;;;4;3.6;;;;;;;17.66;59.50684;949.8621;;;;
2020/04/28 09:09:16;;;;;;;5.8;3.9;;;;;;;17.7;60.36621;949.8519;;;;
2020/04/28 09:13:57;;;;;;;5;3.8;;;;;;;17.87;60.21387;949.8696;;;;
2020/04/28 09:18:54;;;;;;;4.6;3.8;;;;;;;17.88;60.16797;949.874;;;;
2020/04/28 09:21:15;;;;;;;5.5;3.7;;;;;;;18;60.4668;949.8694;;;;
2020/04/28 09:24:00;;;;;;;4.4;3.7;;;;;;;18.02;60.18652;949.8747;;;;
2020/04/28 09:30:56;;;;;;;5.1;3.5;;;;;;;18.07;60.33496;949.8019;;;;
2020/04/28 09:33:27;;;;;;;4.7;3.7;;;;;;;18.15;60.27539;949.789;;;;
2020/04/28 09:36:23;;;;;;;5.3;4;;;;;;;18.37;60.03613;949.7371;;;;
2020/04/28 09:39:40;;;;;;;5.7;4.6;;;;;;;18.46;60.29492;949.7459;;;;
2020/04/28 09:40:51;;;;;;;5.6;3.6;;;;;;;18.58;60.14844;949.7377;;;;
2020/04/28 09:43:11;;;;;;;5.5;3.4;;;;;;;18.53;59.44922;949.7589;;;;
2020/04/28 09:45:38;;;;;;;4.7;3;;;;;;;18.34;59.31836;949.783;;;;
2020/04/28 09:48:13;;;;;;;7.1;3.6;;;;;;;18.52;59.02441;949.77;;;;
2020/04/28 09:50:57;;;;;;;4.2;3;;;;;;;18.6;58.29688;949.7767;;;;
2020/04/28 09:52:54;;;;;;;4;2.7;;;;;;;18.77;58.05078;949.7531;;;;
2020/04/28 09:57:36;;;;;;;3.9;3;;;;;;;18.73;57.83301;949.7222;;;;
2020/04/28 10:02:28;;;;;;;19.3;3.4;;;;;;;18.86;57.3125;949.6902;;;;
2020/04/28 10:04:53;;;;;;;5.3;2.6;;;;;;;18.89;58.08984;949.7159;;;;
2020/04/28 10:07:52;;;;;;;4.2;2.7;;;;;;;18.87;57.46582;949.7296;;;;
2020/04/28 10:09:59;;;;;;;6.1;3.1;;;;;;;18.9;57.75098;949.6931;;;;
2020/04/28 10:12:13;;;;;;;5.6;3;;;;;;;18.93;58.16602;949.7114;;;;
2020/04/28 10:14:42;;;;;;;4.2;3;;;;;;;18.96;58.4043;949.6526;;;;
2020/04/28 10:20:04;;;;;;;3.3;2.7;;;;;;;19.21;58.41406;949.7386;;;;
2020/04/28 10:21:47;;;;;;;5.1;3.1;;;;;;;18.92;58.21094;949.6869;;;;
2020/04/28 10:27:26;;;;;;;3.5;2.8;;;;;;;18.93;58.24707;949.7155;;;;
2020/04/28 10:29:09;;;;;;;3.7;2.5;;;;;;;19;57.78711;949.745;;;;
2020/04/28 10:31:45;;;;;;;2.9;2.4;;;;;;;19.12;57.85059;949.7231;;;;
2020/04/28 10:34:18;;;;;;;3.1;2.2;;;;;;;19.16;57.75;949.7021;;;;
2020/04/28 10:36:35;;;;;;;3.4;2.2;;;;;;;18.93;57.88379;949.712;;;;
2020/04/28 10:38:55;;;;;;;4.7;3;;;;;;;18.85;58.25977;949.6891;;;;
2020/04/28 10:41:14;;;;;;;4.2;2.7;;;;;;;18.73;59.32324;949.6883;;;;
2020/04/28 10:43:49;;;;;;;4.8;2.7;;;;;;;18.67;60.08984;949.6823;;;;
2020/04/28 10:51:00;;;;;;;3.7;1.9;;;;;;;18.68;58.50781;949.6498;;;;
2020/04/28 10:55:46;;;;;;;2.6;1.4;;;;;;;18.68;57.07617;949.682;;;;
2020/04/28 11:00:42;;;;;;;4.7;1.7;;;;;;;18.82;57.3418;949.6306;;;;
2020/04/28 11:06:10;;;;;;;3.3;1.7;;;;;;;18.8;56.76465;949.621;;;;
2020/04/28 11:10:30;;;;;;;2.4;1.5;;;;;;;19.17;56.64746;949.5025;;;;
2020/04/28 11:15:20;;;;;;;3.8;1.5;;;;;;;19.03;57.62598;949.4213;;;;
2020/04/28 11:17:38;;;;;;;3.6;1.8;;;;;;;18.91;58.67871;949.4406;;;;
2020/04/28 11:20:51;;;;;;;3.8;1.8;;;;;;;18.79;59.90625;949.4671;;;;
2020/04/28 11:25:00;;;;;;;2.2;1.6;;;;;;;19.03;59.97461;949.4581;;;;
2020/04/28 11:27:24;;;;;;;3.4;2;;;;;;;18.99;61.42285;949.4528;;;;
2020/04/28 11:29:45;;;;;;;5.2;2.3;;;;;;;18.65;62.92188;949.4758;;;;
2020/04/28 11:32:04;;;;;;;4.3;2.1;;;;;;;18.42;62.80859;949.5681;;;;
2020/04/28 11:36:53;;;;;;;3.5;2.4;;;;;;;18.29;65.84766;949.5533;;;;
2020/04/28 11:39:21;;;;;;;3.7;2.4;;;;;;;18.31;65.97852;949.5685;;;;
2020/04/28 11:41:46;;;;;;;3.7;2.6;;;;;;;18.29;66.28125;949.6161;;;;
2020/04/28 11:44:12;;;;;;;3.2;2.6;;;;;;;18.22;66.9502;949.6685;;;;
2020/04/28 11:46:38;;;;;;;4.1;2.5;;;;;;;17.84;67.48926;949.6839;;;;
2020/04/28 11:49:04;;;;;;;3.3;2.2;;;;;;;18.13;66.83105;949.7236;;;;
2020/04/28 11:51:31;;;;;;;4.9;2.6;;;;;;;18.4;66.09863;949.6834;;;;
2020/04/28 11:53:56;;;;;;;3.8;2.8;;;;;;;18.47;65.61719;949.6575;;;;
2020/04/28 11:56:23;;;;;;;3.2;2.5;;;;;;;18.45;65.82422;949.6398;;;;
2020/04/28 11:58:48;;;;;;;2.9;2.4;;;;;;;18.47;66.12109;949.7101;;;;
2020/04/28 12:01:14;;;;;;;2.9;2.4;;;;;;;18.25;67.05957;949.7031;;;;
2020/04/28 12:03:39;;;;;;;3.3;2.4;;;;;;;18.32;67.08301;949.6663;;;;
2020/04/28 12:06:06;;;;;;;3.7;2.2;;;;;;;18.45;65.77734;949.5986;;;;
2020/04/28 12:08:32;;;;;;;3.4;2.4;;;;;;;18.23;66.66992;949.6509;;;;
2020/04/28 12:10:57;;;;;;;3.8;2.3;;;;;;;18.31;66.34375;949.5611;;;;
2020/04/28 12:13:23;;;;;;;3.4;2.2;;;;;;;18.39;66.24902;949.5291;;;;
2020/04/28 12:15:48;;;;;;;2.7;2.1;;;;;;;18.43;65.3291;949.5036;;;;
2020/04/28 12:18:14;;;;;;;3.5;2.4;;;;;;;18.13;65.78809;949.4292;;;;
2020/04/28 12:20:39;;;;;;;3;2.2;;;;;;;18.52;65.1543;949.3723;;;;
2020/04/28 12:23:05;;;;;;;3.3;2.1;;;;;;;18.48;64.90332;949.3658;;;;
2020/04/28 12:25:36;;;;;;;3;1.9;;;;;;;18.33;66.04199;949.3047;;;;
2020/04/28 12:27:55;;;;;;;2.6;1.8;;;;;;;18.37;65.84863;949.3362;;;;
2020/04/28 12:30:20;;;;;;;2.2;1.9;;;;;;;18.36;65.24805;949.2356;;;;
2020/04/28 12:32:45;;;;;;;2.3;1.8;;;;;;;18.33;64.96289;949.2198;;;;
2020/04/28 12:35:11;;;;;;;2.5;1.7;;;;;;;18.49;63.87305;949.2197;;;;
2020/04/28 12:37:36;;;;;;;2.3;1.5;;;;;;;18.37;63.7041;949.2683;;;;
2020/04/28 12:40:01;;;;;;;2.9;1.6;;;;;;;18.53;62.83496;949.2292;;;;
2020/04/28 12:42:26;;;;;;;3.3;1.8;;;;;;;18.55;62.42871;949.25;;;;
2020/04/28 12:44:51;;;;;;;2.8;1.5;;;;;;;18.68;61.74414;949.213;;;;
2020/04/28 12:47:16;;;;;;;1.7;1.2;;;;;;;18.81;61;949.1519;;;;
2020/04/28 12:49:42;;;;;;;2.2;1.4;;;;;;;19.17;60.91992;949.1259;;;;
2020/04/28 12:52:09;;;;;;;2.3;1.3;;;;;;;19.1;59.97266;949.0405;;;;
2020/04/28 12:54:34;;;;;;;2.5;1.3;;;;;;;19.08;59.80469;949.0187;;;;
2020/04/28 12:57:00;;;;;;;2.5;1.5;;;;;;;19.01;60.69922;948.9995;;;;
2020/04/28 12:59:25;;;;;;;1.5;1.1;;;;;;;19.21;61.17188;948.93;;;;
2020/04/28 13:01:52;;;;;;;1.9;1.2;;;;;;;19.22;60.78613;948.9317;;;;
2020/04/28 13:04:17;;;;;;;3.4;1.4;;;;;;;19.09;59.40625;948.8931;;;;
2020/04/28 13:06:44;;;;;;;2;1.3;;;;;;;19.19;58.75098;948.881;;;;
2020/04/28 13:09:28;;;;;;;3.1;1.9;;;;;;;19.69;57.37207;948.7803;;;;
2020/04/28 13:11:53;;;;;;;1.9;1.2;;;;;;;19.81;56.97754;948.7681;;;;
2020/04/28 13:14:18;;;;;;;2.5;1.2;;;;;;;19.51;57.02051;948.7631;;;;
2020/04/28 13:21:43;;;;;;;2.5;1.3;;;;;;;19.8;56.12891;948.751;;;;
2020/04/28 13:24:14;;;;;;;2.8;1.2;;;;;;;19.72;56.16602;948.7453;;;;
2020/04/28 13:26:48;;;;;;;2.3;1.1;;;;;;;19.67;56.81641;948.6638;;;;
2020/04/28 13:28:59;;;;;;;5;1.3;;;;;;;19.41;56.72461;948.6358;;;;
2020/04/28 13:36:48;;;;;;;2.5;1.7;;;;;;;19.46;57.60059;948.6564;;;;
2020/04/28 13:38:39;;;;;;;3.9;1.6;;;;;;;19.47;57.87305;948.6914;;;;
2020/04/28 13:41:09;;;;;;;3.2;1.6;;;;;;;19.25;58.9707;948.6699;;;;
2020/04/28 13:43:42;;;;;;;2.9;1.5;;;;;;;19.32;59.69629;948.7178;;;;
2020/04/28 13:46:19;;;;;;;3.7;1.7;;;;;;;18.9;60.37891;948.7191;;;;
2020/04/28 13:50:55;;;;;;;1.6;1.4;;;;;;;18.91;60.12207;948.7123;;;;
2020/04/28 13:55:57;;;;;;;2.4;1.5;;;;;;;18.76;59.83203;948.6301;;;;
2020/04/28 13:58:10;;;;;;;2.6;1.4;;;;;;;18.83;59.74609;948.6091;;;;
2020/04/28 14:03:11;;;;;;;2.7;1.1;;;;;;;18.72;59.34473;948.4832;;;;
2020/04/28 14:05:37;;;;;;;2;1.2;;;;;;;18.9;59.70996;948.5225;;;;
2020/04/28 14:10:14;;;;;;;2.8;1;;;;;;;19.86;57.59375;948.4753;;;;
2020/04/28 14:12:37;;;;;;;2.6;1.1;;;;;;;19.96;57.53613;948.4725;;;;
2020/04/28 14:17:43;;;;;;;1.9;1;;;;;;;19.8;55.4834;948.4614;;;;
2020/04/28 14:19:54;;;;;;;2.1;1;;;;;;;19.88;56.10352;948.4076;;;;
2020/04/28 14:27:43;;;;;;;1.8;0.9;;;;;;;19.35;57.87988;948.4103;;;;
2020/04/28 14:32:09;;;;;;;1.3;0.9;;;;;;;19.6;55.26953;948.4172;;;;
2020/04/28 14:36:54;;;;;;;2.7;1;;;;;;;20.29;54.49805;948.4314;;;;
2020/04/28 14:40:05;;;;;;;1.7;0.9;;;;;;;20.83;53.24414;948.3624;;;;
2020/04/28 14:42:16;;;;;;;2.1;1.1;;;;;;;21.44;51.1582;948.3887;;;;
2020/04/28 14:46:28;;;;;;;2.6;1.1;;;;;;;21.61;49.10059;948.4842;;;;
2020/04/28 14:48:57;;;;;;;2.8;1.1;;;;;;;20.59;51.30762;948.3603;;;;
2020/04/28 15:03:42;;;;;;;2.4;1;;;;;;;19.47;54.4668;948.3403;;;;
2020/04/28 15:05:42;;;;;;;1.4;0.9;;;;;;;19.46;54.32422;948.348;;;;
2020/04/28 15:08:08;;;;;;;1.7;0.9;;;;;;;19.46;54.125;948.3282;;;;
2020/04/28 15:10:32;;;;;;;2.2;1.1;;;;;;;19.47;54.51367;948.3261;;;;
2020/04/28 15:12:57;;;;;;;1.2;0.9;;;;;;;19.57;54.21973;948.3833;;;;
2020/04/28 15:15:27;;;;;;;3.6;1.1;;;;;;;19.43;54.35547;948.3979;;;;
2020/04/28 15:17:52;;;;;;;1.8;1.1;;;;;;;19.4;54.14063;948.4163;;;;
2020/04/28 15:20:18;;;;;;;2;1;;;;;;;19.13;54.83496;948.5019;;;;
2020/04/28 15:22:42;;;;;;;2.3;1;;;;;;;19.03;54.49414;948.4688;;;;
2020/04/28 15:25:07;;;;;;;2.4;1.1;;;;;;;19.18;54.80566;948.4998;;;;
2020/04/28 15:27:32;;;;;;;2.7;1;;;;;;;19.09;54.37109;948.4771;;;;
2020/04/28 15:30:03;;;;;;;1.8;0.9;;;;;;;19.09;54.60645;948.4025;;;;
2020/04/28 15:32:28;;;;;;;2.1;1;;;;;;;19.03;54.72852;948.4623;;;;
2020/04/28 15:34:55;;;;;;;2.1;1.1;;;;;;;18.9;55.24023;948.4331;;;;
2020/04/28 15:37:20;;;;;;;2;1;;;;;;;18.84;55.97266;948.4631;;;;
2020/04/28 15:39:48;;;;;;;2.4;1;;;;;;;18.59;55.08398;948.4086;;;;
2020/04/28 15:42:13;;;;;;;1.9;1;;;;;;;18.7;55.0166;948.4095;;;;
2020/04/28 15:44:38;;;;;;;2.4;1;;;;;;;18.66;54.97656;948.4551;;;;
2020/04/28 15:47:03;;;;;;;2;0.9;;;;;;;18.8;54.46484;948.5289;;;;
2020/04/28 15:49:28;;;;;;;1.9;1.1;;;;;;;18.85;54.22461;948.4587;;;;
2020/04/28 15:51:54;;;;;;;1.3;0.8;;;;;;;18.52;54.54883;948.4439;;;;
2020/04/28 15:54:19;;;;;;;2.1;0.9;;;;;;;18.62;54.98145;948.4649;;;;
2020/04/28 15:56:44;;;;;;;1.7;0.8;;;;;;;18.43;54.48926;948.4424;;;;
2020/04/28 15:59:10;;;;;;;1.9;0.8;;;;;;;18.62;55.2041;948.4649;;;;
2020/04/28 16:01:35;;;;;;;3.2;0.9;;;;;;;18.6;54.26465;948.4438;;;;
2020/04/28 16:04:06;;;;;;;2.1;0.8;;;;;;;18.54;56.0498;948.4638;;;;